sensor_id;sensor_type;location;lat;lon;timestamp;P1;durP1;ratioP1;P2;durP2;ratioP2
26953;SDS011;14508;50.924;11.600;2023-11-19T00:00:19;0.77;;;0.70;;
26953;SDS011;14508;50.924;11.600;2023-11-19T00:02:47;4.80;;;1.27;;
26953;SDS011;14508;50.924;11.600;2023-11-19T00:05:17;2.25;;;0.70;;
26953;SDS011;14508;50.924;11.600;2023-11-19T00:07:46;2.42;;;0.93;;
26953;SDS011;14508;50.924;11.600;2023-11-19T00:10:15;1.67;;;0.90;;
26953;SDS011;14508;50.924;11.600;2023-11-19T00:12:45;1.15;;;0.80;;
26953;SDS011;14508;50.924;11.600;2023-11-19T00:15:14;2.95;;;1.20;;
26953;SDS011;14508;50.924;11.600;2023-11-19T00:17:45;3.28;;;0.68;;
26953;SDS011;14508;50.924;11.600;2023-11-19T00:20:16;1.90;;;0.85;;
26953;SDS011;14508;50.924;11.600;2023-11-19T00:22:48;1.55;;;0.82;;
26953;SDS011;14508;50.924;11.600;2023-11-19T00:25:19;5.57;;;0.93;;
26953;SDS011;14508;50.924;11.600;2023-11-19T00:27:49;0.57;;;0.50;;
26953;SDS011;14508;50.924;11.600;2023-11-19T00:30:18;7.18;;;1.00;;
26953;SDS011;14508;50.924;11.600;2023-11-19T00:32:46;7.38;;;1.10;;
26953;SDS011;14508;50.924;11.600;2023-11-19T00:35:14;1.08;;;0.70;;
26953;SDS011;14508;50.924;11.600;2023-11-19T00:37:44;1.13;;;0.40;;
26953;SDS011;14508;50.924;11.600;2023-11-19T00:40:14;4.70;;;0.73;;
26953;SDS011;14508;50.924;11.600;2023-11-19T00:42:45;1.85;;;0.88;;
26953;SDS011;14508;50.924;11.600;2023-11-19T00:45:14;0.85;;;0.63;;
26953;SDS011;14508;50.924;11.600;2023-11-19T00:47:42;1.13;;;0.65;;
26953;SDS011;14508;50.924;11.600;2023-11-19T00:50:10;1.13;;;0.70;;
26953;SDS011;14508;50.924;11.600;2023-11-19T00:52:39;1.17;;;0.50;;
26953;SDS011;14508;50.924;11.600;2023-11-19T00:55:09;0.95;;;0.57;;
26953;SDS011;14508;50.924;11.600;2023-11-19T00:57:39;2.33;;;0.52;;
26953;SDS011;14508;50.924;11.600;2023-11-19T01:00:08;0.70;;;0.40;;
26953;SDS011;14508;50.924;11.600;2023-11-19T01:02:45;1.00;;;0.57;;
26953;SDS011;14508;50.924;11.600;2023-11-19T01:05:16;1.05;;;0.52;;
26953;SDS011;14508;50.924;11.600;2023-11-19T01:07:48;2.58;;;0.57;;
26953;SDS011;14508;50.924;11.600;2023-11-19T01:10:19;0.57;;;0.43;;
26953;SDS011;14508;50.924;11.600;2023-11-19T01:12:47;0.50;;;0.50;;
26953;SDS011;14508;50.924;11.600;2023-11-19T01:15:15;2.17;;;0.80;;
26953;SDS011;14508;50.924;11.600;2023-11-19T01:17:45;0.90;;;0.22;;
26953;SDS011;14508;50.924;11.600;2023-11-19T01:20:16;0.80;;;0.70;;
26953;SDS011;14508;50.924;11.600;2023-11-19T01:22:44;0.68;;;0.50;;
26953;SDS011;14508;50.924;11.600;2023-11-19T01:25:16;1.33;;;0.80;;
26953;SDS011;14508;50.924;11.600;2023-11-19T01:27:46;1.25;;;0.68;;
26953;SDS011;14508;50.924;11.600;2023-11-19T01:30:14;0.40;;;0.40;;
26953;SDS011;14508;50.924;11.600;2023-11-19T01:32:42;0.35;;;0.20;;
26953;SDS011;14508;50.924;11.600;2023-11-19T01:35:10;1.42;;;0.60;;
26953;SDS011;14508;50.924;11.600;2023-11-19T01:37:38;0.82;;;0.50;;
26953;SDS011;14508;50.924;11.600;2023-11-19T01:40:07;1.05;;;0.40;;
26953;SDS011;14508;50.924;11.600;2023-11-19T01:42:38;0.57;;;0.35;;
26953;SDS011;14508;50.924;11.600;2023-11-19T01:45:08;0.40;;;0.40;;
26953;SDS011;14508;50.924;11.600;2023-11-19T01:47:37;0.40;;;0.30;;
26953;SDS011;14508;50.924;11.600;2023-11-19T01:50:06;3.63;;;0.47;;
26953;SDS011;14508;50.924;11.600;2023-11-19T01:52:35;0.47;;;0.40;;
26953;SDS011;14508;50.924;11.600;2023-11-19T01:55:05;0.30;;;0.30;;
26953;SDS011;14508;50.924;11.600;2023-11-19T01:57:36;0.57;;;0.30;;
26953;SDS011;14508;50.924;11.600;2023-11-19T02:00:09;3.22;;;0.60;;
26953;SDS011;14508;50.924;11.600;2023-11-19T02:02:39;1.33;;;0.38;;
26953;SDS011;14508;50.924;11.600;2023-11-19T02:05:09;0.32;;;0.30;;
26953;SDS011;14508;50.924;11.600;2023-11-19T02:07:37;0.60;;;0.52;;
26953;SDS011;14508;50.924;11.600;2023-11-19T02:10:05;0.22;;;0.22;;
26953;SDS011;14508;50.924;11.600;2023-11-19T02:12:39;2.35;;;0.43;;
26953;SDS011;14508;50.924;11.600;2023-11-19T02:15:10;2.35;;;0.35;;
26953;SDS011;14508;50.924;11.600;2023-11-19T02:17:39;0.30;;;0.30;;
26953;SDS011;14508;50.924;11.600;2023-11-19T02:20:07;1.33;;;0.43;;
26953;SDS011;14508;50.924;11.600;2023-11-19T02:22:38;0.68;;;0.40;;
26953;SDS011;14508;50.924;11.600;2023-11-19T02:25:07;0.20;;;0.20;;
26953;SDS011;14508;50.924;11.600;2023-11-19T02:27:48;0.20;;;0.20;;
26953;SDS011;14508;50.924;11.600;2023-11-19T02:30:23;0.40;;;0.25;;
26953;SDS011;14508;50.924;11.600;2023-11-19T02:32:53;0.20;;;0.20;;
26953;SDS011;14508;50.924;11.600;2023-11-19T02:35:24;1.17;;;0.40;;
26953;SDS011;14508;50.924;11.600;2023-11-19T02:37:52;1.10;;;0.40;;
26953;SDS011;14508;50.924;11.600;2023-11-19T02:40:21;0.90;;;0.30;;
26953;SDS011;14508;50.924;11.600;2023-11-19T02:42:52;0.90;;;0.40;;
26953;SDS011;14508;50.924;11.600;2023-11-19T02:45:21;0.50;;;0.50;;
26953;SDS011;14508;50.924;11.600;2023-11-19T02:47:49;0.30;;;0.30;;
26953;SDS011;14508;50.924;11.600;2023-11-19T02:50:18;0.50;;;0.30;;
26953;SDS011;14508;50.924;11.600;2023-11-19T02:52:52;0.85;;;0.40;;
26953;SDS011;14508;50.924;11.600;2023-11-19T02:55:23;0.43;;;0.40;;
26953;SDS011;14508;50.924;11.600;2023-11-19T02:57:55;0.85;;;0.40;;
26953;SDS011;14508;50.924;11.600;2023-11-19T03:00:26;0.20;;;0.20;;
26953;SDS011;14508;50.924;11.600;2023-11-19T03:03:02;0.32;;;0.32;;
26953;SDS011;14508;50.924;11.600;2023-11-19T03:05:44;0.22;;;0.22;;
26953;SDS011;14508;50.924;11.600;2023-11-19T03:08:14;0.35;;;0.30;;
26953;SDS011;14508;50.924;11.600;2023-11-19T03:10:45;1.13;;;0.30;;
26953;SDS011;14508;50.924;11.600;2023-11-19T03:13:15;0.30;;;0.30;;
26953;SDS011;14508;50.924;11.600;2023-11-19T03:15:44;0.20;;;0.20;;
26953;SDS011;14508;50.924;11.600;2023-11-19T03:18:13;0.20;;;0.20;;
26953;SDS011;14508;50.924;11.600;2023-11-19T03:20:41;0.30;;;0.30;;
26953;SDS011;14508;50.924;11.600;2023-11-19T03:23:09;0.85;;;0.35;;
26953;SDS011;14508;50.924;11.600;2023-11-19T03:25:37;0.32;;;0.32;;
26953;SDS011;14508;50.924;11.600;2023-11-19T03:28:06;0.10;;;0.10;;
26953;SDS011;14508;50.924;11.600;2023-11-19T03:30:35;0.30;;;0.20;;
26953;SDS011;14508;50.924;11.600;2023-11-19T03:33:04;1.45;;;0.30;;
26953;SDS011;14508;50.924;11.600;2023-11-19T03:35:33;0.57;;;0.30;;
26953;SDS011;14508;50.924;11.600;2023-11-19T03:38:01;0.17;;;0.17;;
26953;SDS011;14508;50.924;11.600;2023-11-19T03:40:29;0.20;;;0.20;;
26953;SDS011;14508;50.924;11.600;2023-11-19T03:42:57;0.20;;;0.20;;
26953;SDS011;14508;50.924;11.600;2023-11-19T03:45:26;0.95;;;0.30;;
26953;SDS011;14508;50.924;11.600;2023-11-19T03:47:55;0.20;;;0.20;;
26953;SDS011;14508;50.924;11.600;2023-11-19T03:50:23;0.30;;;0.20;;
26953;SDS011;14508;50.924;11.600;2023-11-19T03:52:52;0.30;;;0.28;;
26953;SDS011;14508;50.924;11.600;2023-11-19T03:55:20;0.30;;;0.30;;
26953;SDS011;14508;50.924;11.600;2023-11-19T03:57:48;0.47;;;0.30;;
26953;SDS011;14508;50.924;11.600;2023-11-19T04:00:17;0.20;;;0.20;;
26953;SDS011;14508;50.924;11.600;2023-11-19T04:02:47;0.20;;;0.20;;
26953;SDS011;14508;50.924;11.600;2023-11-19T04:05:17;0.20;;;0.20;;
26953;SDS011;14508;50.924;11.600;2023-11-19T04:07:46;0.90;;;0.20;;
26953;SDS011;14508;50.924;11.600;2023-11-19T04:10:14;3.63;;;0.35;;
26953;SDS011;14508;50.924;11.600;2023-11-19T04:12:44;0.35;;;0.20;;
26953;SDS011;14508;50.924;11.600;2023-11-19T04:15:12;0.10;;;0.10;;
26953;SDS011;14508;50.924;11.600;2023-11-19T04:17:41;2.30;;;0.55;;
26953;SDS011;14508;50.924;11.600;2023-11-19T04:20:10;0.30;;;0.30;;
26953;SDS011;14508;50.924;11.600;2023-11-19T04:22:41;0.30;;;0.30;;
26953;SDS011;14508;50.924;11.600;2023-11-19T04:25:09;0.50;;;0.30;;
26953;SDS011;14508;50.924;11.600;2023-11-19T04:27:37;0.60;;;0.30;;
26953;SDS011;14508;50.924;11.600;2023-11-19T04:30:08;0.38;;;0.20;;
26953;SDS011;14508;50.924;11.600;2023-11-19T04:32:37;0.20;;;0.20;;
26953;SDS011;14508;50.924;11.600;2023-11-19T04:35:06;0.38;;;0.20;;
26953;SDS011;14508;50.924;11.600;2023-11-19T04:37:35;1.52;;;0.30;;
26953;SDS011;14508;50.924;11.600;2023-11-19T04:40:05;0.17;;;0.17;;
26953;SDS011;14508;50.924;11.600;2023-11-19T04:42:34;1.17;;;0.28;;
26953;SDS011;14508;50.924;11.600;2023-11-19T04:45:03;0.50;;;0.20;;
26953;SDS011;14508;50.924;11.600;2023-11-19T04:47:33;0.20;;;0.20;;
26953;SDS011;14508;50.924;11.600;2023-11-19T04:50:01;0.70;;;0.25;;
26953;SDS011;14508;50.924;11.600;2023-11-19T04:52:30;0.20;;;0.20;;
26953;SDS011;14508;50.924;11.600;2023-11-19T04:54:58;0.13;;;0.13;;
26953;SDS011;14508;50.924;11.600;2023-11-19T04:57:28;0.20;;;0.20;;
26953;SDS011;14508;50.924;11.600;2023-11-19T04:59:56;0.30;;;0.30;;
26953;SDS011;14508;50.924;11.600;2023-11-19T05:02:24;0.28;;;0.28;;
26953;SDS011;14508;50.924;11.600;2023-11-19T05:04:52;0.98;;;0.20;;
26953;SDS011;14508;50.924;11.600;2023-11-19T05:07:21;0.10;;;0.10;;
26953;SDS011;14508;50.924;11.600;2023-11-19T05:09:49;0.20;;;0.20;;
26953;SDS011;14508;50.924;11.600;2023-11-19T05:12:17;0.10;;;0.10;;
26953;SDS011;14508;50.924;11.600;2023-11-19T05:14:46;0.80;;;0.30;;
26953;SDS011;14508;50.924;11.600;2023-11-19T05:17:17;0.45;;;0.30;;
26953;SDS011;14508;50.924;11.600;2023-11-19T05:19:45;0.22;;;0.22;;
26953;SDS011;14508;50.924;11.600;2023-11-19T05:22:15;1.40;;;0.30;;
26953;SDS011;14508;50.924;11.600;2023-11-19T05:24:44;0.65;;;0.20;;
26953;SDS011;14508;50.924;11.600;2023-11-19T05:27:15;0.35;;;0.30;;
26953;SDS011;14508;50.924;11.600;2023-11-19T05:29:43;0.50;;;0.30;;
26953;SDS011;14508;50.924;11.600;2023-11-19T05:32:12;0.20;;;0.20;;
26953;SDS011;14508;50.924;11.600;2023-11-19T05:34:40;0.20;;;0.20;;
26953;SDS011;14508;50.924;11.600;2023-11-19T05:37:11;1.75;;;0.20;;
26953;SDS011;14508;50.924;11.600;2023-11-19T05:39:39;3.03;;;0.30;;
26953;SDS011;14508;50.924;11.600;2023-11-19T05:42:07;0.22;;;0.20;;
26953;SDS011;14508;50.924;11.600;2023-11-19T05:44:36;0.38;;;0.22;;
26953;SDS011;14508;50.924;11.600;2023-11-19T05:47:07;0.20;;;0.20;;
26953;SDS011;14508;50.924;11.600;2023-11-19T05:49:37;0.10;;;0.10;;
26953;SDS011;14508;50.924;11.600;2023-11-19T05:52:05;0.13;;;0.13;;
26953;SDS011;14508;50.924;11.600;2023-11-19T05:54:36;0.10;;;0.10;;
26953;SDS011;14508;50.924;11.600;2023-11-19T05:57:04;0.10;;;0.10;;
26953;SDS011;14508;50.924;11.600;2023-11-19T05:59:33;0.35;;;0.20;;
26953;SDS011;14508;50.924;11.600;2023-11-19T06:02:02;1.27;;;0.20;;
26953;SDS011;14508;50.924;11.600;2023-11-19T06:04:30;0.60;;;0.20;;
26953;SDS011;14508;50.924;11.600;2023-11-19T06:07:00;0.38;;;0.10;;
26953;SDS011;14508;50.924;11.600;2023-11-19T06:09:28;1.52;;;0.30;;
26953;SDS011;14508;50.924;11.600;2023-11-19T06:11:56;1.67;;;0.20;;
26953;SDS011;14508;50.924;11.600;2023-11-19T06:14:24;0.17;;;0.17;;
26953;SDS011;14508;50.924;11.600;2023-11-19T06:16:52;0.13;;;0.13;;
26953;SDS011;14508;50.924;11.600;2023-11-19T06:19:20;0.30;;;0.30;;
26953;SDS011;14508;50.924;11.600;2023-11-19T06:21:53;0.32;;;0.30;;
26953;SDS011;14508;50.924;11.600;2023-11-19T06:24:23;0.20;;;0.20;;
26953;SDS011;14508;50.924;11.600;2023-11-19T06:26:51;1.73;;;0.30;;
26953;SDS011;14508;50.924;11.600;2023-11-19T06:29:20;0.20;;;0.20;;
26953;SDS011;14508;50.924;11.600;2023-11-19T06:31:48;0.30;;;0.20;;
26953;SDS011;14508;50.924;11.600;2023-11-19T06:34:16;0.20;;;0.20;;
26953;SDS011;14508;50.924;11.600;2023-11-19T06:36:44;0.30;;;0.30;;
26953;SDS011;14508;50.924;11.600;2023-11-19T06:39:12;1.55;;;0.20;;
26953;SDS011;14508;50.924;11.600;2023-11-19T06:41:45;0.40;;;0.30;;
26953;SDS011;14508;50.924;11.600;2023-11-19T06:44:13;0.38;;;0.22;;
26953;SDS011;14508;50.924;11.600;2023-11-19T06:46:41;0.20;;;0.20;;
26953;SDS011;14508;50.924;11.600;2023-11-19T06:49:10;0.10;;;0.10;;
26953;SDS011;14508;50.924;11.600;2023-11-19T06:51:41;0.30;;;0.30;;
26953;SDS011;14508;50.924;11.600;2023-11-19T06:54:10;0.20;;;0.20;;
26953;SDS011;14508;50.924;11.600;2023-11-19T06:56:38;1.42;;;0.20;;
26953;SDS011;14508;50.924;11.600;2023-11-19T06:59:08;0.35;;;0.22;;
26953;SDS011;14508;50.924;11.600;2023-11-19T07:01:36;0.47;;;0.30;;
26953;SDS011;14508;50.924;11.600;2023-11-19T07:04:05;0.35;;;0.30;;
26953;SDS011;14508;50.924;11.600;2023-11-19T07:06:36;0.90;;;0.45;;
26953;SDS011;14508;50.924;11.600;2023-11-19T07:09:04;0.25;;;0.25;;
26953;SDS011;14508;50.924;11.600;2023-11-19T07:11:37;0.20;;;0.20;;
26953;SDS011;14508;50.924;11.600;2023-11-19T07:14:06;1.30;;;0.32;;
26953;SDS011;14508;50.924;11.600;2023-11-19T07:16:36;2.05;;;0.30;;
26953;SDS011;14508;50.924;11.600;2023-11-19T07:19:04;0.63;;;0.57;;
26953;SDS011;14508;50.924;11.600;2023-11-19T07:21:33;0.20;;;0.20;;
26953;SDS011;14508;50.924;11.600;2023-11-19T07:24:02;0.30;;;0.30;;
26953;SDS011;14508;50.924;11.600;2023-11-19T07:26:30;1.42;;;0.85;;
26953;SDS011;14508;50.924;11.600;2023-11-19T07:28:59;0.55;;;0.30;;
26953;SDS011;14508;50.924;11.600;2023-11-19T07:31:29;3.20;;;0.55;;
26953;SDS011;14508;50.924;11.600;2023-11-19T07:33:58;0.40;;;0.38;;
26953;SDS011;14508;50.924;11.600;2023-11-19T07:36:27;1.02;;;0.35;;
26953;SDS011;14508;50.924;11.600;2023-11-19T07:38:55;0.40;;;0.40;;
26953;SDS011;14508;50.924;11.600;2023-11-19T07:41:24;1.05;;;0.30;;
26953;SDS011;14508;50.924;11.600;2023-11-19T07:43:52;2.75;;;0.50;;
26953;SDS011;14508;50.924;11.600;2023-11-19T07:46:20;2.75;;;0.50;;
26953;SDS011;14508;50.924;11.600;2023-11-19T07:48:50;0.65;;;0.38;;
26953;SDS011;14508;50.924;11.600;2023-11-19T07:51:19;2.33;;;0.47;;
26953;SDS011;14508;50.924;11.600;2023-11-19T07:53:48;3.83;;;0.40;;
26953;SDS011;14508;50.924;11.600;2023-11-19T07:56:16;1.05;;;0.50;;
26953;SDS011;14508;50.924;11.600;2023-11-19T07:58:44;0.68;;;0.50;;
26953;SDS011;14508;50.924;11.600;2023-11-19T08:01:13;4.38;;;0.90;;
26953;SDS011;14508;50.924;11.600;2023-11-19T08:03:43;4.57;;;0.60;;
26953;SDS011;14508;50.924;11.600;2023-11-19T08:06:16;1.55;;;0.50;;
26953;SDS011;14508;50.924;11.600;2023-11-19T08:08:44;1.30;;;0.35;;
26953;SDS011;14508;50.924;11.600;2023-11-19T08:11:14;4.50;;;0.50;;
26953;SDS011;14508;50.924;11.600;2023-11-19T08:13:42;0.30;;;0.30;;
26953;SDS011;14508;50.924;11.600;2023-11-19T08:16:10;2.80;;;0.50;;
26953;SDS011;14508;50.924;11.600;2023-11-19T08:18:38;1.73;;;0.43;;
26953;SDS011;14508;50.924;11.600;2023-11-19T08:21:10;3.35;;;0.60;;
26953;SDS011;14508;50.924;11.600;2023-11-19T08:23:40;1.70;;;0.55;;
26953;SDS011;14508;50.924;11.600;2023-11-19T08:26:09;1.65;;;0.65;;
26953;SDS011;14508;50.924;11.600;2023-11-19T08:28:37;1.58;;;0.47;;
26953;SDS011;14508;50.924;11.600;2023-11-19T08:31:05;7.68;;;0.68;;
26953;SDS011;14508;50.924;11.600;2023-11-19T08:33:33;2.45;;;0.60;;
26953;SDS011;14508;50.924;11.600;2023-11-19T08:36:02;2.13;;;0.70;;
26953;SDS011;14508;50.924;11.600;2023-11-19T08:38:31;1.85;;;0.40;;
26953;SDS011;14508;50.924;11.600;2023-11-19T08:41:00;3.15;;;0.75;;
26953;SDS011;14508;50.924;11.600;2023-11-19T08:43:28;0.40;;;0.30;;
26953;SDS011;14508;50.924;11.600;2023-11-19T08:45:58;2.38;;;0.60;;
26953;SDS011;14508;50.924;11.600;2023-11-19T08:48:26;3.90;;;0.50;;
26953;SDS011;14508;50.924;11.600;2023-11-19T08:50:54;4.55;;;0.80;;
26953;SDS011;14508;50.924;11.600;2023-11-19T08:53:22;2.67;;;1.00;;
26953;SDS011;14508;50.924;11.600;2023-11-19T08:55:50;3.55;;;1.02;;
26953;SDS011;14508;50.924;11.600;2023-11-19T08:58:20;0.70;;;0.50;;
26953;SDS011;14508;50.924;11.600;2023-11-19T09:00:48;3.30;;;0.98;;
26953;SDS011;14508;50.924;11.600;2023-11-19T09:03:16;2.25;;;0.82;;
26953;SDS011;14508;50.924;11.600;2023-11-19T09:05:45;0.28;;;0.20;;
26953;SDS011;14508;50.924;11.600;2023-11-19T09:08:13;0.40;;;0.30;;
26953;SDS011;14508;50.924;11.600;2023-11-19T09:10:41;1.02;;;0.35;;
26953;SDS011;14508;50.924;11.600;2023-11-19T09:13:09;0.85;;;0.60;;
26953;SDS011;14508;50.924;11.600;2023-11-19T09:15:38;1.45;;;0.50;;
26953;SDS011;14508;50.924;11.600;2023-11-19T09:18:08;2.55;;;0.95;;
26953;SDS011;14508;50.924;11.600;2023-11-19T09:20:36;1.23;;;0.63;;
26953;SDS011;14508;50.924;11.600;2023-11-19T09:23:05;0.75;;;0.40;;
26953;SDS011;14508;50.924;11.600;2023-11-19T09:25:35;0.73;;;0.65;;
26953;SDS011;14508;50.924;11.600;2023-11-19T09:28:06;3.33;;;0.68;;
26953;SDS011;14508;50.924;11.600;2023-11-19T09:30:35;2.67;;;0.80;;
26953;SDS011;14508;50.924;11.600;2023-11-19T09:33:04;4.15;;;0.57;;
26953;SDS011;14508;50.924;11.600;2023-11-19T09:35:33;3.20;;;0.60;;
26953;SDS011;14508;50.924;11.600;2023-11-19T09:38:07;1.70;;;0.52;;
26953;SDS011;14508;50.924;11.600;2023-11-19T09:40:35;4.03;;;0.63;;
26953;SDS011;14508;50.924;11.600;2023-11-19T09:43:05;1.33;;;0.50;;
26953;SDS011;14508;50.924;11.600;2023-11-19T09:45:37;5.63;;;1.08;;
26953;SDS011;14508;50.924;11.600;2023-11-19T09:48:15;4.78;;;1.05;;
26953;SDS011;14508;50.924;11.600;2023-11-19T09:50:44;8.45;;;0.95;;
26953;SDS011;14508;50.924;11.600;2023-11-19T09:53:14;9.68;;;1.48;;
26953;SDS011;14508;50.924;11.600;2023-11-19T09:55:43;9.63;;;1.90;;
26953;SDS011;14508;50.924;11.600;2023-11-19T09:58:12;10.70;;;2.80;;
26953;SDS011;14508;50.924;11.600;2023-11-19T10:00:42;25.73;;;2.15;;
26953;SDS011;14508;50.924;11.600;2023-11-19T10:03:17;9.40;;;1.90;;
26953;SDS011;14508;50.924;11.600;2023-11-19T10:05:45;11.70;;;2.88;;
26953;SDS011;14508;50.924;11.600;2023-11-19T10:08:13;7.90;;;1.65;;
26953;SDS011;14508;50.924;11.600;2023-11-19T10:10:43;12.60;;;1.38;;
26953;SDS011;14508;50.924;11.600;2023-11-19T10:13:11;5.75;;;1.45;;
26953;SDS011;14508;50.924;11.600;2023-11-19T10:15:41;10.95;;;1.60;;
26953;SDS011;14508;50.924;11.600;2023-11-19T10:18:11;14.57;;;1.38;;
26953;SDS011;14508;50.924;11.600;2023-11-19T10:20:42;8.63;;;1.20;;
26953;SDS011;14508;50.924;11.600;2023-11-19T10:23:11;9.85;;;2.13;;
26953;SDS011;14508;50.924;11.600;2023-11-19T10:25:39;8.00;;;1.77;;
26953;SDS011;14508;50.924;11.600;2023-11-19T10:28:07;10.95;;;1.60;;
26953;SDS011;14508;50.924;11.600;2023-11-19T10:30:35;9.00;;;1.35;;
26953;SDS011;14508;50.924;11.600;2023-11-19T10:33:04;16.77;;;1.70;;
26953;SDS011;14508;50.924;11.600;2023-11-19T10:35:33;12.43;;;2.53;;
26953;SDS011;14508;50.924;11.600;2023-11-19T10:38:13;15.98;;;2.58;;
26953;SDS011;14508;50.924;11.600;2023-11-19T10:40:41;12.70;;;2.50;;
26953;SDS011;14508;50.924;11.600;2023-11-19T10:43:10;8.93;;;2.33;;
26953;SDS011;14508;50.924;11.600;2023-11-19T10:45:38;8.45;;;2.22;;
26953;SDS011;14508;50.924;11.600;2023-11-19T10:48:07;12.40;;;1.83;;
26953;SDS011;14508;50.924;11.600;2023-11-19T10:50:35;9.35;;;1.77;;
26953;SDS011;14508;50.924;11.600;2023-11-19T10:53:08;11.82;;;1.83;;
26953;SDS011;14508;50.924;11.600;2023-11-19T10:55:39;12.10;;;1.42;;
26953;SDS011;14508;50.924;11.600;2023-11-19T10:58:07;7.60;;;1.33;;
26953;SDS011;14508;50.924;11.600;2023-11-19T11:00:41;9.25;;;1.00;;
26953;SDS011;14508;50.924;11.600;2023-11-19T11:03:14;10.00;;;1.60;;
26953;SDS011;14508;50.924;11.600;2023-11-19T11:05:46;16.13;;;1.90;;
26953;SDS011;14508;50.924;11.600;2023-11-19T11:08:16;11.05;;;1.15;;
26953;SDS011;14508;50.924;11.600;2023-11-19T11:10:45;10.30;;;2.03;;
26953;SDS011;14508;50.924;11.600;2023-11-19T11:13:22;9.50;;;1.23;;
26953;SDS011;14508;50.924;11.600;2023-11-19T11:15:51;10.52;;;1.80;;
26953;SDS011;14508;50.924;11.600;2023-11-19T11:18:21;10.63;;;2.78;;
26953;SDS011;14508;50.924;11.600;2023-11-19T11:20:49;10.57;;;1.75;;
26953;SDS011;14508;50.924;11.600;2023-11-19T11:23:33;10.88;;;1.17;;
26953;SDS011;14508;50.924;11.600;2023-11-19T11:26:25;7.80;;;1.23;;
26953;SDS011;14508;50.924;11.600;2023-11-19T11:29:15;9.77;;;1.95;;
26953;SDS011;14508;50.924;11.600;2023-11-19T11:31:53;4.50;;;1.20;;
26953;SDS011;14508;50.924;11.600;2023-11-19T11:34:41;10.63;;;1.35;;
26953;SDS011;14508;50.924;11.600;2023-11-19T11:37:30;9.70;;;1.52;;
26953;SDS011;14508;50.924;11.600;2023-11-19T11:40:02;6.25;;;1.20;;
26953;SDS011;14508;50.924;11.600;2023-11-19T11:42:36;5.97;;;0.90;;
26953;SDS011;14508;50.924;11.600;2023-11-19T11:45:05;9.60;;;1.63;;
26953;SDS011;14508;50.924;11.600;2023-11-19T11:50:48;16.67;;;1.23;;
26953;SDS011;14508;50.924;11.600;2023-11-19T11:53:18;8.27;;;1.15;;
26953;SDS011;14508;50.924;11.600;2023-11-19T11:55:57;17.08;;;2.47;;
26953;SDS011;14508;50.924;11.600;2023-11-19T11:58:30;7.93;;;1.23;;
26953;SDS011;14508;50.924;11.600;2023-11-19T12:01:00;11.48;;;1.38;;
26953;SDS011;14508;50.924;11.600;2023-11-19T12:03:32;7.50;;;1.73;;
26953;SDS011;14508;50.924;11.600;2023-11-19T12:06:01;7.05;;;1.38;;
26953;SDS011;14508;50.924;11.600;2023-11-19T12:08:29;13.05;;;1.77;;
26953;SDS011;14508;50.924;11.600;2023-11-19T12:11:00;8.07;;;1.23;;
26953;SDS011;14508;50.924;11.600;2023-11-19T12:13:45;8.95;;;0.88;;
26953;SDS011;14508;50.924;11.600;2023-11-19T12:16:15;7.85;;;1.70;;
26953;SDS011;14508;50.924;11.600;2023-11-19T12:18:43;9.93;;;1.50;;
26953;SDS011;14508;50.924;11.600;2023-11-19T12:21:12;11.20;;;1.70;;
26953;SDS011;14508;50.924;11.600;2023-11-19T12:23:55;8.13;;;1.55;;
26953;SDS011;14508;50.924;11.600;2023-11-19T12:26:32;9.07;;;1.55;;
26953;SDS011;14508;50.924;11.600;2023-11-19T12:29:01;8.75;;;1.20;;
26953;SDS011;14508;50.924;11.600;2023-11-19T12:31:34;9.32;;;1.33;;
26953;SDS011;14508;50.924;11.600;2023-11-19T12:34:06;6.32;;;1.30;;
26953;SDS011;14508;50.924;11.600;2023-11-19T12:36:39;5.47;;;1.00;;
26953;SDS011;14508;50.924;11.600;2023-11-19T12:39:11;10.43;;;0.85;;
26953;SDS011;14508;50.924;11.600;2023-11-19T12:41:55;8.02;;;1.10;;
26953;SDS011;14508;50.924;11.600;2023-11-19T12:44:25;4.97;;;1.42;;
26953;SDS011;14508;50.924;11.600;2023-11-19T12:47:00;9.85;;;1.17;;
26953;SDS011;14508;50.924;11.600;2023-11-19T12:49:30;11.93;;;2.47;;
26953;SDS011;14508;50.924;11.600;2023-11-19T12:51:58;15.88;;;1.80;;
26953;SDS011;14508;50.924;11.600;2023-11-19T12:54:35;9.68;;;1.13;;
26953;SDS011;14508;50.924;11.600;2023-11-19T12:57:05;4.93;;;1.50;;
26953;SDS011;14508;50.924;11.600;2023-11-19T12:59:34;10.82;;;1.42;;
26953;SDS011;14508;50.924;11.600;2023-11-19T13:02:03;7.55;;;1.45;;
26953;SDS011;14508;50.924;11.600;2023-11-19T13:04:32;7.07;;;0.98;;
26953;SDS011;14508;50.924;11.600;2023-11-19T13:07:01;11.50;;;1.17;;
26953;SDS011;14508;50.924;11.600;2023-11-19T13:09:31;6.10;;;1.30;;
26953;SDS011;14508;50.924;11.600;2023-11-19T13:12:11;2.75;;;1.10;;
26953;SDS011;14508;50.924;11.600;2023-11-19T13:14:43;9.52;;;1.20;;
26953;SDS011;14508;50.924;11.600;2023-11-19T13:17:13;15.82;;;1.52;;
26953;SDS011;14508;50.924;11.600;2023-11-19T13:19:42;5.72;;;1.45;;
26953;SDS011;14508;50.924;11.600;2023-11-19T13:22:10;8.13;;;2.05;;
26953;SDS011;14508;50.924;11.600;2023-11-19T13:24:38;5.45;;;1.10;;
26953;SDS011;14508;50.924;11.600;2023-11-19T13:27:07;6.93;;;2.10;;
26953;SDS011;14508;50.924;11.600;2023-11-19T13:29:36;8.13;;;1.70;;
26953;SDS011;14508;50.924;11.600;2023-11-19T13:32:04;8.73;;;1.08;;
26953;SDS011;14508;50.924;11.600;2023-11-19T13:34:32;8.82;;;1.58;;
26953;SDS011;14508;50.924;11.600;2023-11-19T13:37:00;8.10;;;1.35;;
26953;SDS011;14508;50.924;11.600;2023-11-19T13:39:29;11.38;;;1.60;;
26953;SDS011;14508;50.924;11.600;2023-11-19T13:41:57;10.55;;;1.42;;
26953;SDS011;14508;50.924;11.600;2023-11-19T13:44:29;9.80;;;1.20;;
26953;SDS011;14508;50.924;11.600;2023-11-19T13:46:58;10.02;;;1.80;;
26953;SDS011;14508;50.924;11.600;2023-11-19T13:49:26;6.90;;;0.90;;
26953;SDS011;14508;50.924;11.600;2023-11-19T13:51:54;13.48;;;1.48;;
26953;SDS011;14508;50.924;11.600;2023-11-19T13:54:22;10.43;;;1.52;;
26953;SDS011;14508;50.924;11.600;2023-11-19T13:56:50;15.13;;;2.50;;
26953;SDS011;14508;50.924;11.600;2023-11-19T13:59:24;10.77;;;2.03;;
26953;SDS011;14508;50.924;11.600;2023-11-19T14:01:52;11.68;;;2.05;;
26953;SDS011;14508;50.924;11.600;2023-11-19T14:04:20;7.68;;;1.13;;
26953;SDS011;14508;50.924;11.600;2023-11-19T14:06:48;8.32;;;1.20;;
26953;SDS011;14508;50.924;11.600;2023-11-19T14:09:16;7.18;;;1.30;;
26953;SDS011;14508;50.924;11.600;2023-11-19T14:11:45;9.50;;;1.58;;
26953;SDS011;14508;50.924;11.600;2023-11-19T14:14:14;12.45;;;1.33;;
26953;SDS011;14508;50.924;11.600;2023-11-19T14:16:42;12.25;;;1.83;;
26953;SDS011;14508;50.924;11.600;2023-11-19T14:19:11;10.43;;;1.60;;
26953;SDS011;14508;50.924;11.600;2023-11-19T14:21:41;10.63;;;1.27;;
26953;SDS011;14508;50.924;11.600;2023-11-19T14:24:11;7.03;;;0.88;;
26953;SDS011;14508;50.924;11.600;2023-11-19T14:26:39;14.57;;;2.10;;
26953;SDS011;14508;50.924;11.600;2023-11-19T14:29:07;7.50;;;1.17;;
26953;SDS011;14508;50.924;11.600;2023-11-19T14:31:35;7.85;;;1.45;;
26953;SDS011;14508;50.924;11.600;2023-11-19T14:34:04;11.13;;;1.80;;
26953;SDS011;14508;50.924;11.600;2023-11-19T14:36:32;14.57;;;2.42;;
26953;SDS011;14508;50.924;11.600;2023-11-19T14:39:02;13.82;;;2.28;;
26953;SDS011;14508;50.924;11.600;2023-11-19T14:41:30;6.95;;;1.08;;
26953;SDS011;14508;50.924;11.600;2023-11-19T14:43:58;14.77;;;1.83;;
26953;SDS011;14508;50.924;11.600;2023-11-19T14:46:28;15.13;;;1.48;;
26953;SDS011;14508;50.924;11.600;2023-11-19T14:48:57;13.90;;;1.50;;
26953;SDS011;14508;50.924;11.600;2023-11-19T14:51:25;20.38;;;1.95;;